KGXY/GXY METAR and TAF weather

Enter ICAO airport designator
Station Type Date Time Source
KGXY METAR 2022/01/26 07:56 UTC NOAA

KGXY 260756Z AUTO 00000KT SCT002 M16/M17 A3018 RMK AO2 SLP289 T11561172 PWINO FZRANO $


Station Type Date Time Source
KGXY Decoded METAR 2022/01/26 07:56 UTC NOAA

Greeley, Greeley-Weld County Airport, CO, United States (KGXY) 40-26N 104-38W
Jan 26, 2022 - 02:56 AM EST / 2022.01.26 0756 UTC
Wind: Calm:0
Sky conditions: partly cloudy
Temperature: 3.9 F (-15.6 C)
Dew Point: 1.0 F (-17.2 C)
Relative Humidity: 87%
Pressure (altimeter): 30.18 in. Hg (1022 hPa)
ob: KGXY 260756Z AUTO 00000KT SCT002 M16/M17 A3018 RMK AO2 SLP289 T11561172 PWINO FZRANO
cycle: 8

Station Type Date Time Source
KGXY TAF UTC NOAA

Error!

Example: see airport list